createdAt,value
2018-10-05T07:32:41.876Z,14.75
2018-10-05T07:34:07.452Z,14.78
2018-10-05T07:35:34.613Z,14.78
2018-10-05T07:37:32.018Z,14.80
2018-10-05T07:38:59.084Z,14.79
2018-10-05T07:41:14.717Z,14.78
2018-10-05T07:44:47.574Z,14.73
2018-10-05T07:49:46.584Z,14.65
2018-10-05T07:51:13.139Z,14.62
2018-10-05T07:53:58.329Z,14.58
2018-10-05T08:09:28.355Z,14.64
2018-10-05T08:10:54.284Z,14.65
2018-10-05T08:12:21.610Z,14.65
2018-10-05T08:13:48.923Z,14.64
2018-10-05T08:15:17.191Z,14.62
2018-10-05T08:16:43.096Z,14.60
2018-10-05T08:18:11.594Z,14.56
2018-10-05T08:19:38.982Z,14.53
2018-10-05T08:36:54.995Z,14.85
2018-10-05T08:38:22.721Z,14.90
2018-10-05T08:39:50.074Z,14.93
2018-10-05T08:45:00.003Z,15.01
2018-10-05T08:46:26.847Z,15.04
2018-10-05T08:47:53.137Z,15.06
2018-10-05T08:49:20.417Z,15.09
2018-10-05T08:50:48.450Z,15.09
2018-10-05T08:52:15.079Z,15.09
2018-10-05T08:53:43.140Z,15.08
2018-10-05T08:55:10.585Z,15.09
2018-10-05T08:56:37.547Z,15.09
2018-10-05T08:58:03.941Z,15.09
2018-10-05T08:59:31.312Z,15.11
2018-10-05T09:00:59.803Z,15.12
2018-10-05T09:02:26.938Z,15.14
2018-10-05T09:04:13.621Z,15.17
2018-10-05T09:05:40.779Z,15.20
2018-10-05T09:07:08.083Z,15.23
2018-10-05T09:08:35.038Z,15.26
2018-10-05T09:10:02.684Z,15.30
2018-10-05T09:11:28.881Z,15.33
2018-10-05T09:12:57.229Z,15.38
2018-10-05T09:14:24.686Z,15.42
2018-10-05T09:15:50.698Z,15.46
2018-10-05T09:17:17.635Z,15.51
2018-10-05T09:18:46.110Z,15.56
2018-10-05T09:20:12.305Z,15.59
2018-10-05T09:21:39.877Z,15.61
2018-10-05T09:23:07.390Z,15.64
2018-10-05T09:24:34.613Z,15.66
2018-10-05T09:26:03.075Z,15.68
2018-10-05T09:27:29.915Z,15.68
2018-10-05T09:28:57.224Z,15.69
2018-10-05T09:30:23.410Z,15.69
2018-10-05T09:31:50.891Z,15.69
2018-10-05T09:33:19.507Z,15.70
2018-10-05T09:34:46.854Z,15.72
2018-10-05T09:36:12.941Z,15.77
2018-10-05T09:37:40.266Z,15.84
2018-10-05T09:39:07.640Z,15.92
2018-10-05T09:40:34.991Z,16.00
2018-10-05T09:42:02.537Z,16.06
2018-10-05T09:43:30.820Z,16.11
2018-10-05T09:44:58.234Z,16.17
2018-10-05T09:46:24.660Z,16.23
2018-10-05T09:47:52.988Z,16.24
2018-10-05T09:49:19.346Z,16.25
2018-10-05T09:50:46.906Z,16.26
2018-10-05T09:52:15.176Z,16.26
2018-10-05T09:53:41.388Z,16.26
2018-10-05T09:55:08.955Z,16.26
2018-10-05T09:56:36.374Z,16.26
2018-10-05T09:58:03.699Z,16.30
2018-10-05T09:59:32.202Z,16.34
2018-10-05T10:00:59.574Z,16.38
2018-10-05T10:02:26.054Z,16.42
2018-10-05T10:03:53.491Z,16.45
2018-10-05T10:05:21.942Z,16.53
2018-10-05T10:06:49.350Z,16.59
2018-10-05T10:08:16.700Z,16.65
2018-10-05T10:09:43.957Z,16.72
2018-10-05T10:11:11.115Z,16.79
2018-10-05T10:12:38.625Z,16.86
2018-10-05T10:14:04.931Z,16.93
2018-10-05T10:15:32.345Z,16.98
2018-10-05T10:17:00.774Z,17.06
2018-10-05T10:18:27.147Z,17.11
2018-10-05T10:19:55.690Z,17.18
2018-10-05T10:21:23.681Z,17.25
2018-10-05T10:22:49.576Z,17.31
2018-10-05T10:24:16.990Z,17.35
2018-10-05T10:25:45.234Z,17.39
2018-10-05T10:27:11.879Z,17.42
2018-10-05T10:28:42.510Z,17.45
2018-10-05T10:30:07.324Z,17.51
2018-10-05T10:31:33.806Z,17.55
2018-10-05T10:33:01.957Z,17.59
2018-10-05T10:34:29.574Z,17.64
2018-10-05T10:35:55.789Z,17.71
2018-10-05T10:37:24.317Z,17.76
2018-10-05T10:38:51.837Z,17.83
2018-10-05T10:40:19.186Z,17.91
2018-10-05T10:41:45.794Z,17.98
2018-10-05T10:43:13.189Z,18.05
2018-10-05T10:44:41.431Z,18.11
2018-10-05T10:46:08.937Z,18.18
2018-10-05T10:47:36.373Z,18.24
2018-10-05T10:49:02.651Z,18.32
2018-10-05T10:50:30.127Z,18.40
2018-10-05T10:51:57.540Z,18.48
2018-10-05T10:53:25.982Z,18.55
2018-10-05T10:54:53.342Z,18.62
2018-10-05T10:56:19.822Z,18.69
2018-10-05T10:57:47.903Z,18.76
2018-10-05T10:59:15.242Z,18.86
2018-10-05T11:00:41.946Z,18.97
2018-10-05T11:02:09.410Z,19.09
2018-10-05T11:03:36.838Z,19.23
2018-10-05T11:05:05.478Z,19.38
2018-10-05T11:06:32.982Z,19.52
2018-10-05T11:08:00.314Z,19.67
2018-10-05T11:09:26.530Z,19.83
2018-10-05T11:10:55.058Z,19.99
2018-10-05T11:12:21.473Z,20.17
2018-10-05T11:13:49.878Z,20.34
2018-10-05T11:15:16.330Z,20.48
2018-10-05T11:16:43.834Z,20.57
2018-10-05T11:18:12.234Z,20.65
2018-10-05T11:19:38.904Z,20.81
2018-10-05T11:21:06.401Z,20.95
2018-10-05T11:22:33.922Z,21.10
2018-10-05T11:24:02.385Z,21.25
2018-10-05T11:25:29.161Z,21.44
2018-10-05T11:26:56.667Z,21.58
2018-10-05T11:28:25.123Z,21.68
2018-10-05T11:29:51.635Z,21.79
2018-10-05T11:31:18.993Z,21.84
2018-10-05T11:32:46.517Z,21.86
2018-10-05T11:34:13.988Z,21.90
2018-10-05T11:35:41.719Z,21.99
2018-10-05T11:37:09.120Z,22.04
2018-10-05T11:38:36.543Z,22.12
2018-10-05T11:40:04.867Z,22.22
2018-10-05T11:41:32.392Z,22.31
2018-10-05T11:43:00.135Z,22.38
2018-10-05T11:44:26.511Z,22.52
2018-10-05T11:45:55.283Z,22.61
2018-10-05T11:47:21.685Z,22.54
2018-10-05T11:48:49.808Z,22.47
2018-10-05T11:50:16.063Z,22.39
2018-10-05T11:51:43.717Z,22.41
2018-10-05T11:53:11.225Z,22.47
2018-10-05T11:54:39.727Z,22.62
2018-10-05T11:56:07.170Z,22.73
2018-10-05T11:57:34.459Z,22.79
2018-10-05T11:59:01.467Z,22.86
2018-10-05T12:00:27.956Z,22.97
2018-10-05T12:01:56.362Z,22.98
2018-10-05T12:03:23.148Z,23.05
2018-10-05T12:04:50.512Z,23.14
2018-10-05T12:06:18.030Z,23.15
2018-10-05T12:07:45.303Z,23.19
2018-10-05T12:09:13.638Z,23.29
2018-10-05T12:10:40.274Z,23.27
2018-10-05T12:12:08.949Z,23.29
2018-10-05T12:13:35.012Z,23.26
2018-10-05T12:15:03.464Z,23.32
2018-10-05T12:16:31.100Z,23.40
2018-10-05T12:17:58.586Z,23.46
2018-10-05T12:19:26.153Z,23.52
2018-10-05T12:20:52.608Z,23.55
2018-10-05T12:22:20.877Z,23.54
2018-10-05T12:23:47.559Z,23.57
2018-10-05T12:25:16.219Z,23.58
2018-10-05T12:26:42.518Z,23.52
2018-10-05T12:28:10.060Z,23.46
2018-10-05T12:29:38.460Z,23.46
2018-10-05T12:31:05.016Z,23.51
2018-10-05T12:32:32.665Z,23.53
2018-10-05T12:34:01.273Z,23.62
2018-10-05T12:35:27.855Z,23.70
2018-10-05T12:36:55.292Z,23.81
2018-10-05T12:38:23.021Z,23.79
2018-10-05T12:39:50.448Z,23.78
2018-10-05T12:41:17.931Z,23.81
2018-10-05T12:42:45.487Z,23.83
2018-10-05T12:44:13.053Z,23.89
2018-10-05T12:45:40.679Z,23.90
2018-10-05T12:47:08.107Z,23.88
2018-10-05T12:48:36.705Z,23.86
2018-10-05T12:50:03.310Z,23.78
2018-10-05T12:51:30.872Z,23.77
2018-10-05T12:52:58.393Z,23.78
2018-10-05T12:54:26.905Z,23.79
2018-10-05T12:55:53.395Z,23.78
2018-10-05T12:57:20.867Z,23.71
2018-10-05T12:58:48.181Z,23.69
2018-10-05T13:00:15.761Z,23.67
2018-10-05T13:01:43.189Z,23.64
2018-10-05T13:03:11.904Z,23.56
2018-10-05T13:04:39.070Z,23.65
2018-10-05T13:06:05.326Z,23.72
2018-10-05T13:07:33.923Z,23.79
2018-10-05T13:09:00.552Z,23.81
2018-10-05T13:10:27.972Z,23.78
2018-10-05T13:11:55.438Z,23.68
2018-10-05T13:13:23.201Z,23.69
2018-10-05T13:14:50.577Z,23.67
2018-10-05T13:16:18.147Z,23.59
2018-10-05T13:17:45.803Z,23.56
2018-10-05T13:19:14.182Z,23.56
2018-10-05T13:20:41.793Z,23.50
2018-10-05T13:22:08.227Z,23.45
2018-10-05T13:23:35.702Z,23.44
2018-10-05T13:25:03.308Z,23.40
2018-10-05T13:26:30.801Z,23.44
2018-10-05T13:27:58.552Z,23.44
2018-10-05T13:29:26.847Z,23.43
2018-10-05T13:30:53.380Z,23.32
2018-10-05T13:32:21.920Z,23.26
2018-10-05T13:33:48.471Z,23.28
2018-10-05T13:35:16.932Z,23.32
2018-10-05T13:36:43.452Z,23.33
2018-10-05T13:38:11.103Z,23.32
2018-10-05T13:39:38.757Z,23.30
2018-10-05T13:41:06.135Z,23.24
2018-10-05T13:42:34.777Z,23.16
2018-10-05T13:44:01.172Z,23.15
2018-10-05T13:45:28.696Z,23.11
2018-10-05T13:46:56.183Z,23.08
2018-10-05T13:48:23.763Z,23.06
2018-10-05T13:49:52.284Z,23.03
2018-10-05T13:51:18.628Z,22.99
2018-10-05T13:52:47.263Z,22.94
2018-10-05T13:54:13.540Z,22.90
2018-10-05T13:55:41.136Z,22.86
2018-10-05T13:57:09.608Z,22.86
2018-10-05T13:58:36.155Z,22.85
2018-10-05T14:00:03.682Z,22.82
2018-10-05T14:01:31.305Z,22.82
2018-10-05T14:02:58.878Z,22.78
2018-10-05T14:04:32.503Z,22.63
2018-10-05T14:05:53.886Z,22.58
2018-10-05T14:07:21.511Z,22.49
2018-10-05T14:08:49.138Z,22.44
2018-10-05T14:10:16.685Z,22.40
2018-10-05T14:11:44.139Z,22.33
2018-10-05T14:13:11.771Z,22.27
2018-10-05T14:14:39.136Z,22.16
2018-10-05T14:16:07.656Z,22.12
2018-10-05T14:17:34.169Z,22.08
2018-10-05T14:19:02.487Z,22.02
2018-10-05T14:20:30.045Z,21.94
2018-10-05T14:21:56.316Z,21.90
2018-10-05T14:23:23.969Z,21.88
2018-10-05T14:24:51.428Z,21.86
2018-10-05T14:26:18.936Z,21.83
2018-10-05T14:27:47.441Z,21.80
2018-10-05T14:29:14.642Z,21.74
2018-10-05T14:30:41.190Z,21.69
2018-10-05T14:32:08.732Z,21.66
2018-10-05T14:33:36.364Z,21.60
2018-10-05T14:35:03.856Z,21.55
2018-10-05T14:36:32.096Z,21.50
2018-10-05T14:37:59.796Z,21.45
2018-10-05T14:39:27.192Z,21.41
2018-10-05T14:40:53.632Z,21.36
2018-10-05T14:42:22.104Z,21.29
2018-10-05T14:43:49.674Z,21.26
2018-10-05T14:45:17.179Z,21.23
2018-10-05T14:46:44.731Z,21.19
2018-10-05T14:48:11.165Z,21.13
2018-10-05T14:49:38.793Z,21.10
2018-10-05T14:51:06.135Z,21.05
2018-10-05T14:52:34.781Z,21.02
2018-10-05T14:54:00.707Z,20.97
2018-10-05T14:55:27.982Z,20.93
2018-10-05T14:56:56.392Z,20.89
2018-10-05T14:58:23.892Z,20.84
2018-10-05T14:59:50.429Z,20.81
2018-10-05T15:01:17.687Z,20.77
2018-10-05T15:02:46.361Z,20.74
2018-10-05T15:04:12.766Z,20.70
2018-10-05T15:05:41.266Z,20.69
2018-10-05T15:07:07.814Z,20.68
2018-10-05T15:08:36.386Z,20.66
2018-10-05T15:10:03.073Z,20.63
2018-10-05T15:11:31.511Z,20.59
2018-10-05T15:12:57.991Z,20.57
2018-10-05T15:14:25.391Z,20.55
2018-10-05T15:15:53.912Z,20.53
2018-10-05T15:17:20.278Z,20.50
2018-10-05T15:18:48.527Z,20.46
2018-10-05T15:20:15.935Z,20.43
2018-10-05T15:21:42.236Z,20.40
2018-10-05T15:23:09.788Z,20.37
2018-10-05T15:24:37.206Z,20.35
2018-10-05T15:26:04.190Z,20.30
2018-10-05T15:27:31.779Z,20.27
2018-10-05T15:28:59.358Z,20.25
2018-10-05T15:30:27.897Z,20.23
2018-10-05T15:31:55.365Z,20.19
2018-10-05T15:33:22.906Z,20.16
2018-10-05T15:34:49.553Z,20.13
2018-10-05T15:36:17.241Z,20.09
2018-10-05T15:37:44.546Z,20.05
2018-10-05T15:39:12.044Z,20.03
2018-10-05T15:40:39.548Z,20.00
2018-10-05T15:42:08.173Z,19.98
2018-10-05T15:43:35.461Z,19.94
2018-10-05T15:45:03.076Z,19.91
2018-10-05T15:46:29.561Z,19.86
2018-10-05T15:47:57.218Z,19.83
2018-10-05T15:49:25.702Z,19.79
2018-10-05T15:50:53.329Z,19.75
2018-10-05T15:52:19.613Z,19.70
2018-10-05T15:53:47.240Z,19.67
2018-10-05T15:55:15.802Z,19.63
2018-10-05T15:56:42.098Z,19.59
2018-10-05T15:58:09.559Z,19.50
2018-10-05T15:59:36.983Z,19.43
2018-10-05T16:01:04.622Z,19.37
2018-10-05T16:02:32.095Z,19.29
2018-10-05T16:04:00.327Z,19.24
2018-10-05T16:05:28.052Z,19.18
2018-10-05T16:06:55.353Z,19.15
2018-10-05T16:08:22.832Z,19.08
2018-10-05T16:09:50.312Z,19.02
2018-10-05T16:11:17.833Z,18.97
2018-10-05T16:12:45.283Z,18.94
2018-10-05T16:14:11.535Z,18.92
2018-10-05T16:15:39.020Z,18.90
2018-10-05T16:17:06.583Z,18.86
2018-10-05T16:18:34.155Z,18.80
2018-10-05T16:20:01.729Z,18.75
2018-10-05T16:21:30.339Z,18.71
2018-10-05T16:22:57.881Z,18.67
2018-10-05T16:24:25.077Z,18.63
2018-10-05T16:25:52.696Z,18.58
2018-10-05T16:27:20.090Z,18.53
2018-10-05T16:28:47.558Z,18.47
2018-10-05T16:30:14.016Z,18.42
2018-10-05T16:31:41.607Z,18.36
2018-10-05T16:33:09.267Z,18.32
2018-10-05T16:34:37.579Z,18.28
2018-10-05T16:36:04.033Z,18.25
2018-10-05T16:37:31.694Z,18.21
2018-10-05T16:39:00.026Z,18.17
2018-10-05T16:40:26.522Z,18.15
2018-10-05T16:41:54.934Z,18.10
2018-10-05T16:43:21.513Z,18.07
2018-10-05T16:44:49.876Z,18.03
2018-10-05T16:46:17.528Z,17.99
2018-10-05T16:47:43.859Z,17.96
2018-10-05T16:49:11.346Z,17.93
2018-10-05T16:50:39.748Z,17.89
2018-10-05T16:52:05.953Z,17.87
2018-10-05T16:53:33.273Z,17.84
2018-10-05T16:55:00.777Z,17.82
2018-10-05T16:56:28.280Z,17.79
2018-10-05T16:57:56.661Z,17.76
2018-10-05T16:59:23.088Z,17.73
2018-10-05T17:00:50.350Z,17.69
2018-10-05T17:02:17.716Z,17.67
2018-10-05T17:03:45.348Z,17.64
2018-10-05T17:05:13.630Z,17.61
2018-10-05T17:06:40.108Z,17.57
2018-10-05T17:08:08.366Z,17.53
2018-10-05T17:09:35.876Z,17.51
2018-10-05T17:11:03.426Z,17.45
2018-10-05T17:12:30.812Z,17.41
2018-10-05T17:13:58.209Z,17.39
2018-10-05T17:15:25.853Z,17.36
2018-10-05T17:16:52.408Z,17.32
2018-10-05T17:18:20.710Z,17.29
2018-10-05T17:19:47.142Z,17.24
2018-10-05T17:21:15.638Z,17.22
2018-10-05T17:22:42.081Z,17.19
2018-10-05T17:24:10.624Z,17.17
2018-10-05T17:25:38.190Z,17.14
2018-10-05T17:27:05.415Z,17.11
2018-10-05T17:28:32.784Z,17.09
2018-10-05T17:29:59.465Z,17.07
2018-10-05T17:31:26.802Z,17.04
2018-10-05T17:32:55.427Z,17.01
2018-10-05T17:34:21.966Z,16.98
2018-10-05T17:35:50.203Z,16.95
2018-10-05T17:37:17.621Z,16.93
2018-10-05T17:38:44.138Z,16.90
2018-10-05T17:40:12.628Z,16.88
2018-10-05T17:41:40.019Z,16.86
2018-10-05T17:43:07.426Z,16.83
2018-10-05T17:44:33.821Z,16.81
2018-10-05T17:46:02.193Z,16.78
2018-10-05T17:47:28.621Z,16.74
2018-10-05T17:48:55.793Z,16.71
2018-10-05T17:50:24.367Z,16.68
2018-10-05T17:51:51.994Z,16.64
2018-10-05T17:53:19.490Z,16.62
2018-10-05T17:54:46.765Z,16.60
2018-10-05T17:56:13.452Z,16.56
2018-10-05T17:57:40.925Z,16.53
2018-10-05T17:59:09.458Z,16.49
2018-10-05T18:00:36.016Z,16.46
2018-10-05T18:02:03.437Z,16.43
2018-10-05T18:03:30.933Z,16.42
2018-10-05T18:04:58.357Z,16.40
2018-10-05T18:06:26.049Z,16.39
2018-10-05T18:07:53.452Z,16.36
2018-10-05T18:09:21.956Z,16.32
2018-10-05T18:10:48.455Z,16.29
2018-10-05T18:12:15.811Z,16.25
2018-10-05T18:13:43.154Z,16.23
2018-10-05T18:15:10.689Z,16.19
2018-10-05T18:16:39.325Z,16.17
2018-10-05T18:18:06.878Z,16.14
2018-10-05T18:19:32.915Z,16.12
2018-10-05T18:21:01.510Z,16.09
2018-10-05T18:22:29.030Z,16.07
2018-10-05T18:23:49.412Z,16.06
2018-10-05T18:25:23.912Z,16.04
2018-10-05T18:26:50.433Z,16.02
2018-10-05T18:28:17.846Z,15.99
2018-10-05T18:29:45.222Z,15.98
2018-10-05T18:31:13.820Z,15.97
2018-10-05T18:32:40.156Z,15.94
2018-10-05T18:34:07.627Z,15.92
2018-10-05T18:35:34.884Z,15.89
2018-10-05T18:37:02.439Z,15.87
2018-10-05T18:38:30.846Z,15.85
2018-10-05T18:39:58.228Z,15.84
2018-10-05T18:41:24.602Z,15.82
2018-10-05T18:42:51.771Z,15.81
2018-10-05T18:44:19.353Z,15.80
2018-10-05T18:45:46.789Z,15.77
2018-10-05T18:47:15.189Z,15.75
2018-10-05T18:48:41.611Z,15.73
2018-10-05T18:50:10.117Z,15.71
2018-10-05T18:51:37.482Z,15.67
2018-10-05T18:53:03.987Z,15.63
2018-10-05T18:54:31.608Z,15.60
2018-10-05T18:55:58.966Z,15.57
2018-10-05T18:57:27.368Z,15.54
2018-10-05T18:58:53.769Z,15.51
2018-10-05T19:00:22.322Z,15.48
2018-10-05T19:01:48.505Z,15.45
2018-10-05T19:03:15.873Z,15.44
2018-10-05T19:04:43.438Z,15.41
2018-10-05T19:06:11.958Z,15.39
2018-10-05T19:07:38.289Z,15.37
2018-10-05T19:09:05.737Z,15.36
2018-10-05T19:10:33.239Z,15.35
2018-10-05T19:12:00.830Z,15.33
2018-10-05T19:13:29.117Z,15.31
2018-10-05T19:14:55.587Z,15.29
2018-10-05T19:16:24.044Z,15.27
2018-10-05T19:17:51.327Z,15.25
2018-10-05T19:19:18.797Z,15.22
2018-10-05T19:20:45.972Z,15.21
2018-10-05T19:22:12.285Z,15.18
2018-10-05T19:23:39.762Z,15.16
2018-10-05T19:25:07.040Z,15.14
2018-10-05T19:26:35.730Z,15.12
2018-10-05T19:28:02.767Z,15.10
2018-10-05T19:29:30.189Z,15.09
2018-10-05T19:30:57.289Z,15.09
2018-10-05T19:32:23.745Z,15.08
2018-10-05T19:33:52.066Z,15.06
2018-10-05T19:35:19.344Z,15.04
2018-10-05T19:36:46.823Z,15.01
2018-10-05T19:38:13.088Z,14.99
2018-10-05T19:39:41.352Z,14.97
2018-10-05T19:41:08.760Z,14.95
2018-10-05T19:42:35.165Z,14.93
2018-10-05T19:44:02.697Z,14.90
2018-10-05T19:45:30.078Z,14.88
2018-10-05T19:46:57.627Z,14.86
2018-10-05T19:48:25.076Z,14.82
2018-10-05T19:49:52.385Z,14.80
2018-10-05T19:51:20.740Z,14.76
2018-10-05T19:52:47.284Z,14.73
2018-10-05T19:54:14.658Z,14.69
2018-10-05T19:55:42.909Z,14.66
2018-10-05T19:57:09.252Z,14.63
2018-10-05T19:58:36.840Z,14.59
2018-10-05T20:00:05.168Z,14.56
2018-10-05T20:01:31.449Z,14.52
2018-10-05T20:02:58.856Z,14.50
2018-10-05T20:04:27.099Z,14.47
2018-10-05T20:05:53.571Z,14.44
2018-10-05T20:07:22.080Z,14.42
2018-10-05T20:08:49.306Z,14.39
2018-10-05T20:10:16.664Z,14.34
2018-10-05T20:11:43.155Z,14.30
2018-10-05T20:13:10.783Z,14.26
2018-10-05T20:14:37.809Z,14.22
2018-10-05T20:16:05.187Z,14.17
2018-10-05T20:17:32.689Z,14.13
2018-10-05T20:19:00.127Z,14.10
2018-10-05T20:20:28.700Z,14.07
2018-10-05T20:21:56.037Z,14.04
2018-10-05T20:23:23.522Z,14.00
2018-10-05T20:24:49.847Z,13.97
2018-10-05T20:26:18.165Z,13.93
2018-10-05T20:27:44.624Z,13.89
2018-10-05T20:29:11.897Z,13.85
2018-10-05T20:30:40.293Z,13.80
2018-10-05T20:32:06.771Z,13.75
2018-10-05T20:33:34.206Z,13.71
2018-10-05T20:35:02.634Z,13.66
2018-10-05T20:36:29.048Z,13.63
2018-10-05T20:37:56.161Z,13.62
2018-10-05T20:39:24.645Z,13.60
2018-10-05T20:40:50.853Z,13.57
2018-10-05T20:42:18.425Z,13.54
2018-10-05T20:43:46.636Z,13.53
2018-10-05T20:45:13.279Z,13.52
2018-10-05T20:46:41.796Z,13.53
2018-10-05T20:48:08.990Z,13.53
2018-10-05T20:49:35.475Z,13.54
2018-10-05T20:51:03.961Z,13.56
2018-10-05T20:52:30.341Z,13.59
2018-10-05T20:53:57.686Z,13.60
2018-10-05T20:55:25.059Z,13.61
2018-10-05T20:56:53.509Z,13.63
2018-10-05T20:58:19.876Z,13.65
2018-10-05T20:59:48.376Z,13.67
2018-10-05T21:01:14.650Z,13.69
2018-10-05T21:02:42.822Z,13.71
2018-10-05T21:04:10.333Z,13.72
2018-10-05T21:05:37.835Z,13.73
2018-10-05T21:07:04.091Z,13.74
2018-10-05T21:08:31.697Z,13.76
2018-10-05T21:09:59.264Z,13.75
2018-10-05T21:11:27.639Z,13.75
2018-10-05T21:12:55.030Z,13.76
2018-10-05T21:14:22.403Z,13.77
2018-10-05T21:15:49.646Z,13.78
2018-10-05T21:17:17.012Z,13.77
2018-10-05T21:18:43.284Z,13.76
2018-10-05T21:20:11.828Z,13.77
2018-10-05T21:21:39.073Z,13.77
2018-10-05T21:23:06.728Z,13.77
2018-10-05T21:24:34.129Z,13.76
2018-10-05T21:26:01.608Z,13.76
2018-10-05T21:27:29.221Z,13.76
2018-10-05T21:28:55.674Z,13.75
2018-10-05T21:30:24.075Z,13.73
2018-10-05T21:31:50.638Z,13.72
2018-10-05T21:33:17.884Z,13.70
2018-10-05T21:34:46.040Z,13.68
2018-10-05T21:36:12.335Z,13.66
2018-10-05T21:37:39.586Z,13.64
2018-10-05T21:39:08.135Z,13.60
2018-10-05T21:40:34.506Z,13.58
2018-10-05T21:42:02.781Z,13.55
2018-10-05T21:43:29.315Z,13.52
2018-10-05T21:44:56.818Z,13.51
2018-10-05T21:46:25.322Z,13.50
2018-10-05T21:47:51.775Z,13.49
2018-10-05T21:49:19.286Z,13.46
2018-10-05T21:50:46.510Z,13.45
2018-10-05T21:52:15.012Z,13.43
2018-10-05T21:53:42.084Z,13.42
2018-10-05T21:55:08.450Z,13.41
2018-10-05T21:56:36.823Z,13.39
2018-10-05T21:58:03.836Z,13.36
2018-10-05T21:59:30.105Z,13.35
2018-10-05T22:00:58.489Z,13.34
2018-10-05T22:02:25.040Z,13.33
2018-10-05T22:03:52.450Z,13.33
2018-10-05T22:05:19.869Z,13.33
2018-10-05T22:06:47.205Z,13.32
2018-10-05T22:08:14.621Z,13.30
2018-10-05T22:09:41.882Z,13.29
2018-10-05T22:11:09.388Z,13.28
2018-10-05T22:12:36.798Z,13.28
2018-10-05T22:14:05.359Z,13.28
2018-10-05T22:15:31.773Z,13.26
2018-10-05T22:17:00.305Z,13.25
2018-10-05T22:18:26.525Z,13.23
2018-10-05T22:19:54.919Z,13.22
2018-10-05T22:21:21.331Z,13.22
2018-10-05T22:22:48.742Z,13.21
2018-10-05T22:24:17.239Z,13.20
2018-10-05T22:25:44.565Z,13.20
2018-10-05T22:27:12.055Z,13.20
2018-10-05T22:28:38.387Z,13.19
2018-10-05T22:30:05.734Z,13.18
2018-10-05T22:31:34.152Z,13.18
2018-10-05T22:33:00.467Z,13.17
2018-10-05T22:34:27.737Z,13.16
2018-10-05T22:35:54.999Z,13.15
2018-10-05T22:37:22.266Z,13.14
2018-10-05T22:38:49.649Z,13.13
2018-10-05T22:40:18.042Z,13.11
2018-10-05T22:41:45.557Z,13.10
2018-10-05T22:43:11.949Z,13.08
2018-10-05T22:44:39.562Z,13.06
2018-10-05T22:46:07.843Z,13.05
2018-10-05T22:47:35.326Z,13.03
2018-10-05T22:49:02.813Z,13.02
2018-10-05T22:50:30.286Z,13.02
2018-10-05T22:51:56.561Z,13.03
2018-10-05T22:53:23.804Z,13.03
2018-10-05T22:54:52.206Z,13.02
2018-10-05T22:56:18.648Z,12.99
2018-10-05T22:57:46.832Z,12.94
2018-10-05T22:59:13.187Z,12.89
2018-10-05T23:00:40.645Z,12.85
2018-10-05T23:02:09.116Z,12.80
2018-10-05T23:03:36.619Z,12.75
2018-10-05T23:05:02.886Z,12.71
2018-10-05T23:06:31.217Z,12.68
2018-10-05T23:07:57.483Z,12.64
2018-10-05T23:09:25.880Z,12.61
2018-10-05T23:10:52.221Z,12.59
2018-10-05T23:12:20.495Z,12.55
2018-10-05T23:13:46.997Z,12.51
2018-10-05T23:15:14.536Z,12.48
2018-10-05T23:16:41.678Z,12.46
2018-10-05T23:18:09.116Z,12.44
2018-10-05T23:19:37.474Z,12.43
2018-10-05T23:21:03.851Z,12.43
2018-10-05T23:22:31.502Z,12.43
2018-10-05T23:23:59.929Z,12.44
2018-10-05T23:25:26.357Z,12.45
2018-10-05T23:26:53.825Z,12.46
2018-10-05T23:28:21.275Z,12.47
2018-10-05T23:29:49.658Z,12.48
2018-10-05T23:31:16.969Z,12.49
2018-10-05T23:32:44.360Z,12.51
2018-10-05T23:34:10.581Z,12.52
2018-10-05T23:35:39.180Z,12.54
2018-10-05T23:37:06.369Z,12.54
2018-10-05T23:38:33.826Z,12.56
2018-10-05T23:40:00.307Z,12.57
2018-10-05T23:41:27.815Z,12.58
2018-10-05T23:42:56.247Z,12.58
2018-10-05T23:44:23.734Z,12.58
2018-10-05T23:45:49.890Z,12.58
2018-10-05T23:47:17.297Z,12.58
2018-10-05T23:48:44.424Z,12.57
2018-10-05T23:50:12.054Z,12.54
2018-10-05T23:51:39.434Z,12.53
2018-10-05T23:53:06.884Z,12.53
2018-10-05T23:54:34.318Z,12.54
2018-10-05T23:56:02.758Z,12.55
2018-10-05T23:57:30.150Z,12.53
2018-10-05T23:58:56.651Z,12.49
